To NAV CANADA Home Page Login to a new session Search on AWWS site Feedback and Comments Disclaimer Vers la page française équivalente Tips FAQ What's new on the site To the Forecasts and Observations / NOTAM section To "File a Flight Plan" website Publications and other links Update of the User's profile FIC Telephone Numbers My Weather Data Folder Route Weather Data Regional Weather Data Local Weather Data To the Forecasts and Observations / NOTAM section
Request Generated 05/24/2015 at 20:57:09 UTC . Weather information available at that time is displayed.

METAR/TAF

KELOWNA/BC    (show WxCam)

SPECI CYLW 242042Z AUTO 34011G22KT 9SM -RA SCT038 SCT060 BKN083 15/12
A3001 RMK LTNG DIST ALQDS SLP163 DENSITY ALT 1600FT=
SPECI CYLW 242036Z AUTO 34018KT 9SM -RA VCTS FEW048 SCT070 BKN080
OVC091 15/12 A3000 RMK LTNG DIST ALQDS PRESFR SLP161 DENSITY ALT
1500FT=
SPECI CYLW 242027Z AUTO 01008G15KT 320V030 9SM -RA VCTS BKN085 OVC110
14/12 A3001 RMK LTNG DIST ALQDS SLP164 DENSITY ALT 1500FT=
SPECI CYLW 242026Z AUTO 01008G15KT 320V030 9SM -TSRA BKN085 OVC110
15/12 A3001 RMK LTNG DIST ALQDS SLP164 DENSITY ALT 1500FT=
SPECI CYLW 242023Z AUTO 36012G18KT 9SM TS BKN085 OVC110 15/11 A3001
RMK LTNG DIST ALQDS SLP165 DENSITY ALT 1500FT=
METAR CYLW 242000Z AUTO 32015G21KT 310V020 9SM TSRA BKN080 OVC100
14/11 A3000 RMK LTNG DIST SE PRESRR SLP162 DENSITY ALT 1500FT=
SPECI CYLW 241933Z AUTO 35017KT 9SM -TSRA SCT045 BKN070 BKN080 OVC098
14/12 A3001 RMK LTNG DIST S SW SLP164 DENSITY ALT 1500FT=
SPECI CYLW 241927Z AUTO 36014G22KT 9SM +TSRA SCT043 BKN070 OVC093
14/12 A3001 RMK LTNG DIST S SW SLP164 DENSITY ALT 1500FT=
METAR CYLW 241900Z AUTO 35021G29KT 9SM -TSRA FEW070 BKN089 OVC110
15/12 A3000 RMK LTNG DIST S SW SLP161 DENSITY ALT 1600FT=
SPECI CYLW 241851Z AUTO 34023G31KT 9SM -TSRA BKN090 OVC110 15/12
A3000 RMK LTNG DIST SW W SLP160 DENSITY ALT 1600FT=
SPECI CYLW 241839Z AUTO 33026G33KT 9SM -RA BKN090 BKN110 BKN140 16/11
A2999 RMK LTNG DIST SW W SLP157 DENSITY ALT 1700FT=
METAR CYLW 241800Z AUTO 34019G29KT 9SM BKN090 BKN110 19/12 A2999 RMK
LTNG DIST W SLP156 DENSITY ALT 2000FT=

TAF AMD CYLW 241905Z 2419/2507 34012G22KT P6SM BKN100 TEMPO 2419/2502
34020G30KT 4SM TSRA BKN040 OVC100CB PROB30 2419/2502 VRB25G35KT
2SM +TSRAGR OVC040CB
FM250200 32010KT P6SM BKN080 TEMPO 2502/2507 P6SM -SHRA BKN040
OVC080 PROB40 2502/2507 VRB20G30KT 3SM TSRA OVC040CB
RMK FCST BASED ON AUTO OBS. NXT FCST BY 250100Z=
Your time UTC time
Weather data provided by Environment Canada and NAV CANADA